createdAt,value
2023-03-06T00:00:15.049Z,53.8
2023-03-06T00:01:16.140Z,53.8
2023-03-06T00:02:17.111Z,53.8
2023-03-06T00:03:18.141Z,53.7
2023-03-06T00:04:19.121Z,53.6
2023-03-06T00:05:20.222Z,53.7
2023-03-06T00:06:21.162Z,53.8
2023-03-06T00:07:22.135Z,54.1
2023-03-06T00:08:23.104Z,54
2023-03-06T00:09:24.081Z,54
2023-03-06T00:10:25.054Z,54.1
2023-03-06T00:11:26.151Z,54.2
2023-03-06T00:12:27.179Z,54.2
2023-03-06T00:13:28.185Z,54.3
2023-03-06T00:14:29.122Z,54.1
2023-03-06T00:15:30.223Z,54.7
2023-03-06T00:16:31.121Z,54.9
2023-03-06T00:17:32.065Z,54.8
2023-03-06T00:18:33.095Z,54.7
2023-03-06T00:19:34.106Z,54.6
2023-03-06T00:20:35.084Z,54.6
2023-03-06T00:21:36.128Z,54.5
2023-03-06T00:22:37.180Z,54.4
2023-03-06T00:23:38.222Z,54.5
2023-03-06T00:24:39.074Z,54.4
2023-03-06T00:25:40.204Z,54.5
2023-03-06T00:26:41.108Z,54.4
2023-03-06T00:27:42.223Z,54.3
2023-03-06T00:28:43.243Z,54.1
2023-03-06T00:29:44.120Z,54.3
2023-03-06T00:30:45.171Z,54.5
2023-03-06T00:31:46.158Z,54.6
2023-03-06T00:32:47.303Z,54.6
2023-03-06T00:33:48.263Z,54.6
2023-03-06T00:34:49.164Z,54.5
2023-03-06T00:35:50.373Z,54.3
2023-03-06T00:36:51.182Z,54.4
2023-03-06T00:37:52.245Z,54.4
2023-03-06T00:38:53.102Z,54.3
2023-03-06T00:39:54.043Z,54.1
2023-03-06T00:40:55.101Z,54.3
2023-03-06T00:41:56.171Z,54.3
2023-03-06T00:42:57.177Z,54.3
2023-03-06T00:43:58.098Z,54.2
2023-03-06T00:44:59.147Z,54.4
2023-03-06T00:46:00.298Z,54.5
2023-03-06T00:47:01.068Z,54.6
2023-03-06T00:48:02.242Z,54.6
2023-03-06T00:49:03.120Z,54.6
2023-03-06T00:50:04.141Z,54.4
2023-03-06T00:51:05.180Z,54.3
2023-03-06T00:52:06.325Z,54.1
2023-03-06T00:53:07.100Z,54
2023-03-06T00:54:08.170Z,53.8
2023-03-06T00:55:09.060Z,53.6
2023-03-06T00:56:10.110Z,53.5
2023-03-06T00:57:11.208Z,53.6
2023-03-06T00:58:12.282Z,53.5
2023-03-06T00:59:13.060Z,53.4
2023-03-06T01:00:14.186Z,53.3
2023-03-06T01:01:15.198Z,53.4
2023-03-06T01:02:16.076Z,53.5
2023-03-06T01:03:17.119Z,53.5
2023-03-06T01:04:18.178Z,53.5
2023-03-06T01:05:19.084Z,53.5
2023-03-06T01:06:20.317Z,53.6
2023-03-06T01:07:21.127Z,53.7
2023-03-06T01:08:22.167Z,53.6
2023-03-06T01:09:23.323Z,53.4
2023-03-06T01:10:24.316Z,53.2
2023-03-06T01:11:25.337Z,53.4
2023-03-06T01:12:26.220Z,53.5
2023-03-06T01:13:27.140Z,53.5
2023-03-06T01:14:28.217Z,53.5
2023-03-06T01:15:29.144Z,53.5
2023-03-06T01:16:30.145Z,53.4
2023-03-06T01:17:31.139Z,53.5
2023-03-06T01:18:32.067Z,53.7
2023-03-06T01:19:33.139Z,53.8
2023-03-06T01:20:34.135Z,54
2023-03-06T01:21:35.129Z,54
2023-03-06T01:22:36.134Z,54.1
2023-03-06T01:23:37.114Z,54
2023-03-06T01:24:38.075Z,53.9
2023-03-06T01:25:39.139Z,53.8
2023-03-06T01:26:40.197Z,53.9
2023-03-06T01:27:41.116Z,54.1
2023-03-06T01:28:42.122Z,54.4
2023-03-06T01:29:43.113Z,54.6
2023-03-06T01:30:44.139Z,54.8
2023-03-06T01:31:45.223Z,55
2023-03-06T01:32:46.196Z,55.2
2023-03-06T01:33:47.154Z,55.2
2023-03-06T01:34:48.136Z,55.1
2023-03-06T01:35:49.180Z,55.3
2023-03-06T01:36:50.154Z,55.4
2023-03-06T01:37:51.179Z,55.9
2023-03-06T01:38:52.118Z,56
2023-03-06T01:39:53.158Z,56
2023-03-06T01:40:54.127Z,55.7
2023-03-06T01:41:55.165Z,55.6
2023-03-06T01:42:56.358Z,55.8
2023-03-06T01:43:57.318Z,55.9
2023-03-06T01:44:58.166Z,56
2023-03-06T01:45:59.155Z,56.2
2023-03-06T01:47:00.202Z,56.4
2023-03-06T01:48:01.040Z,56.5
2023-03-06T01:49:02.181Z,56.5
2023-03-06T01:50:03.149Z,56.6
2023-03-06T01:51:04.220Z,56.9
2023-03-06T01:52:05.145Z,57
2023-03-06T01:53:06.120Z,57.2
2023-03-06T01:54:07.261Z,57.3
2023-03-06T01:55:08.142Z,57.7
2023-03-06T01:56:09.163Z,57.4
2023-03-06T01:57:10.136Z,57.4
2023-03-06T01:58:11.141Z,57.4
2023-03-06T01:59:12.134Z,57.4
2023-03-06T02:00:13.226Z,57.5
2023-03-06T02:01:14.221Z,57.5
2023-03-06T02:02:15.241Z,57.5
2023-03-06T02:06:30.235Z,58.2
2023-03-06T02:07:31.175Z,58.2
2023-03-06T02:08:32.156Z,58.7
2023-03-06T02:09:33.075Z,58.6
2023-03-06T02:10:34.236Z,58.6
2023-03-06T02:11:35.255Z,58.2
2023-03-06T02:12:36.147Z,58.3
2023-03-06T02:13:37.116Z,58.1
2023-03-06T02:14:38.317Z,58
2023-03-06T02:15:39.476Z,57.8
2023-03-06T02:16:40.319Z,57.7
2023-03-06T02:17:41.116Z,57.7
2023-03-06T02:18:42.261Z,57.8
2023-03-06T02:19:43.235Z,57.8
2023-03-06T02:20:44.177Z,57.5
2023-03-06T02:21:45.220Z,57.3
2023-03-06T02:22:46.182Z,57.2
2023-03-06T02:23:47.184Z,57.1
2023-03-06T02:24:48.188Z,57
2023-03-06T02:25:49.160Z,57
2023-03-06T02:26:50.262Z,56.6
2023-03-06T02:27:51.199Z,56.8
2023-03-06T02:28:52.198Z,57
2023-03-06T02:29:53.293Z,57.2
2023-03-06T02:30:54.338Z,57.4
2023-03-06T02:31:55.185Z,57.3
2023-03-06T02:32:56.149Z,57.4
2023-03-06T02:33:57.179Z,57.5
2023-03-06T02:34:58.264Z,57.6
2023-03-06T02:35:59.161Z,57.5
2023-03-06T02:37:00.274Z,57.6
2023-03-06T02:38:01.176Z,57.7
2023-03-06T02:39:02.361Z,58
2023-03-06T02:40:03.407Z,58.3
2023-03-06T02:41:04.238Z,58.4
2023-03-06T02:42:05.221Z,58.6
2023-03-06T02:43:06.239Z,58.7
2023-03-06T02:44:07.179Z,58.7
2023-03-06T02:45:08.177Z,58.7
2023-03-06T02:46:09.312Z,58.7
2023-03-06T02:47:10.261Z,58.6
2023-03-06T02:48:11.296Z,58.4
2023-03-06T02:49:12.427Z,58.1
2023-03-06T02:50:13.347Z,57.6
2023-03-06T02:51:14.426Z,57.3
2023-03-06T02:52:39.686Z,57.2
2023-03-06T02:53:38.376Z,57.4
2023-03-06T02:54:39.374Z,57.3
2023-03-06T02:55:40.241Z,57.5
2023-03-06T02:56:41.227Z,57.6
2023-03-06T02:57:42.230Z,57.5
2023-03-06T02:58:43.372Z,57.4
2023-03-06T02:59:47.059Z,57.3
2023-03-06T03:00:48.263Z,57.1
2023-03-06T03:01:49.234Z,56.8
2023-03-06T03:02:50.236Z,56.9
2023-03-06T03:03:51.295Z,56.7
2023-03-06T03:04:52.253Z,56.5
2023-03-06T03:05:53.215Z,56.1
2023-03-06T03:06:54.180Z,55.9
2023-03-06T03:07:55.283Z,55.7
2023-03-06T03:08:56.177Z,56
2023-03-06T03:09:57.121Z,55.7
2023-03-06T03:10:58.252Z,55.5
2023-03-06T03:11:59.190Z,55.3
2023-03-06T03:13:00.312Z,55.5
2023-03-06T03:14:01.131Z,55.4
2023-03-06T03:15:02.198Z,55.3
2023-03-06T03:16:03.463Z,55.1
2023-03-06T03:17:04.382Z,54.9
2023-03-06T03:18:05.476Z,54.8
2023-03-06T03:19:06.411Z,54.8
2023-03-06T03:20:07.153Z,54.8
2023-03-06T03:21:08.261Z,54.9
2023-03-06T03:22:09.153Z,54.1
2023-03-06T03:23:10.214Z,54.9
2023-03-06T03:24:11.214Z,55.2
2023-03-06T03:25:12.397Z,55.4
2023-03-06T03:26:13.174Z,56.1
2023-03-06T03:27:14.161Z,56.4
2023-03-06T03:28:15.143Z,56.6
2023-03-06T03:29:16.195Z,56.4
2023-03-06T03:30:17.163Z,56.6
2023-03-06T03:31:18.232Z,56.5
2023-03-06T03:32:19.215Z,56.3
2023-03-06T03:33:20.501Z,56.1
2023-03-06T03:34:21.181Z,56.2
2023-03-06T03:35:22.233Z,55.5
2023-03-06T03:36:23.451Z,55.7
2023-03-06T03:37:24.236Z,55.7
2023-03-06T03:38:25.375Z,55.9
2023-03-06T03:39:26.196Z,56.2
2023-03-06T03:40:27.197Z,56.4
2023-03-06T03:41:28.238Z,56.5
2023-03-06T03:42:29.142Z,56.5
2023-03-06T03:43:30.296Z,56.5
2023-03-06T03:44:31.226Z,56.3
2023-03-06T03:45:32.217Z,56.3
2023-03-06T03:46:33.247Z,56.6
2023-03-06T03:47:34.217Z,56.8
2023-03-06T03:48:35.383Z,56.7
2023-03-06T03:49:36.220Z,56.8
2023-03-06T03:50:37.425Z,56.9
2023-03-06T03:51:38.368Z,56.8
2023-03-06T03:52:39.244Z,56.8
2023-03-06T03:53:40.462Z,56.6
2023-03-06T03:54:41.376Z,56.6
2023-03-06T03:55:42.400Z,56.7
2023-03-06T03:56:43.340Z,56.9
2023-03-06T03:57:44.234Z,57.4
2023-03-06T03:58:45.140Z,57.7
2023-03-06T03:59:46.173Z,57.8
2023-03-06T04:00:47.255Z,57.9
2023-03-06T04:01:48.332Z,57.8
2023-03-06T04:02:49.275Z,57.9
2023-03-06T04:03:50.282Z,57.9
2023-03-06T04:04:51.350Z,57.9
2023-03-06T04:05:52.238Z,57.9
2023-03-06T04:06:53.160Z,57.6
2023-03-06T04:07:54.333Z,58
2023-03-06T04:08:55.312Z,58.2
2023-03-06T04:09:56.193Z,58.6
2023-03-06T04:10:57.213Z,58.7
2023-03-06T04:11:58.233Z,58.8
2023-03-06T04:12:59.284Z,58.8
2023-03-06T04:14:00.357Z,58.4
2023-03-06T04:15:01.199Z,59
2023-03-06T04:16:02.168Z,59.4
2023-03-06T04:17:03.198Z,59.5
2023-03-06T04:18:04.138Z,59.5
2023-03-06T04:19:05.232Z,59.5
2023-03-06T04:20:06.252Z,59.6
2023-03-06T04:21:07.205Z,59.9
2023-03-06T04:22:08.240Z,59.9
2023-03-06T04:23:09.277Z,59.9
2023-03-06T04:24:10.232Z,59.8
2023-03-06T04:25:11.153Z,60.1
2023-03-06T04:26:12.623Z,60.2
2023-03-06T04:27:14.255Z,60
2023-03-06T04:28:15.235Z,60
2023-03-06T04:29:16.261Z,59.8
2023-03-06T04:30:17.272Z,59.5
2023-03-06T04:31:18.345Z,59.2
2023-03-06T04:32:21.385Z,58.7
2023-03-06T04:33:20.296Z,58.4
2023-03-06T04:34:21.349Z,58.5
2023-03-06T04:35:22.232Z,58.3
2023-03-06T04:36:23.235Z,58.3
2023-03-06T04:37:24.225Z,58
2023-03-06T04:38:25.296Z,58.2
2023-03-06T04:39:26.236Z,58.1
2023-03-06T04:40:27.299Z,58.1
2023-03-06T04:41:28.309Z,58.1
2023-03-06T04:42:29.259Z,58.1
2023-03-06T04:43:30.217Z,58.5
2023-03-06T04:44:31.285Z,58.7
2023-03-06T04:45:32.325Z,59
2023-03-06T04:46:33.354Z,59.2
2023-03-06T04:47:34.354Z,59.3
2023-03-06T04:48:35.256Z,59.4
2023-03-06T04:49:36.421Z,59.5
2023-03-06T04:50:37.478Z,59.5
2023-03-06T04:51:38.385Z,59.5
2023-03-06T04:52:39.438Z,59.4
2023-03-06T04:53:40.538Z,59.5
2023-03-06T04:54:41.236Z,59.9
2023-03-06T04:55:42.258Z,59.9
2023-03-06T04:56:43.437Z,59.8
2023-03-06T04:57:44.230Z,59.6
2023-03-06T04:58:45.299Z,59.5
2023-03-06T04:59:46.326Z,59.4
2023-03-06T05:00:47.373Z,58.9
2023-03-06T05:01:48.352Z,59.8
2023-03-06T05:02:49.254Z,60
2023-03-06T05:03:50.416Z,60
2023-03-06T05:04:51.519Z,59.5
2023-03-06T05:05:52.299Z,59.5
2023-03-06T05:06:53.273Z,59.4
2023-03-06T05:07:54.278Z,59.4
2023-03-06T05:08:55.259Z,59.3
2023-03-06T05:09:56.272Z,59.1
2023-03-06T05:10:57.255Z,59.2
2023-03-06T05:11:58.181Z,59.6
2023-03-06T05:12:59.312Z,59.9
2023-03-06T05:14:00.299Z,60.1
2023-03-06T05:15:01.281Z,60.2
2023-03-06T05:16:02.172Z,60.1
2023-03-06T05:17:03.239Z,60
2023-03-06T05:18:04.259Z,59.8
2023-03-06T05:19:05.278Z,60.1
2023-03-06T05:20:12.013Z,60.1
2023-03-06T05:21:07.377Z,60.2
2023-03-06T05:22:08.426Z,60.1
2023-03-06T05:23:09.470Z,59.9
2023-03-06T05:24:10.461Z,59.8
2023-03-06T05:25:11.301Z,59.7
2023-03-06T05:26:12.718Z,59.6
2023-03-06T05:27:16.800Z,59.4
2023-03-06T05:28:15.182Z,59
2023-03-06T05:29:16.160Z,58.7
2023-03-06T05:30:17.290Z,58.7
2023-03-06T05:31:18.267Z,58.7
2023-03-06T05:32:19.215Z,58.7
2023-03-06T05:33:20.358Z,58.7
2023-03-06T05:34:21.478Z,58.7
2023-03-06T05:35:22.491Z,58.2
2023-03-06T05:36:23.400Z,58.5
2023-03-06T05:37:24.433Z,58
2023-03-06T05:38:25.414Z,58.3
2023-03-06T05:39:26.293Z,58.2
2023-03-06T05:40:27.464Z,57.9
2023-03-06T05:41:28.459Z,57.9
2023-03-06T05:42:29.275Z,58
2023-03-06T05:43:30.329Z,57.9
2023-03-06T05:44:31.495Z,58
2023-03-06T05:45:32.490Z,58.2
2023-03-06T05:46:33.433Z,58.2
2023-03-06T05:47:34.396Z,58.1
2023-03-06T05:48:35.431Z,58.3
2023-03-06T05:49:36.344Z,58.5
2023-03-06T05:50:37.523Z,58.8
2023-03-06T05:51:38.490Z,59
2023-03-06T05:52:39.440Z,58.8
2023-03-06T05:53:40.467Z,58.7
2023-03-06T05:54:41.354Z,58.8
2023-03-06T05:55:42.468Z,58.7
2023-03-06T05:56:43.414Z,58.7
2023-03-06T05:57:44.328Z,58.9
2023-03-06T05:58:45.558Z,59
2023-03-06T05:59:46.569Z,58.3
2023-03-06T06:00:47.498Z,58.6
2023-03-06T06:01:48.290Z,58.7
2023-03-06T06:02:49.266Z,58.8
2023-03-06T06:03:50.370Z,58.9
2023-03-06T06:04:51.243Z,58.8
2023-03-06T06:05:52.380Z,58.7
2023-03-06T06:06:53.504Z,59.1
2023-03-06T06:07:54.457Z,59.5
2023-03-06T06:08:55.454Z,59.9
2023-03-06T06:09:56.345Z,60
2023-03-06T06:10:57.333Z,60
2023-03-06T06:11:58.437Z,60.1
2023-03-06T06:12:59.444Z,59.9
2023-03-06T06:14:00.376Z,60
2023-03-06T06:15:01.327Z,60.1
2023-03-06T06:16:02.365Z,60.1
2023-03-06T06:17:03.194Z,60
2023-03-06T06:18:04.291Z,59.8
2023-03-06T06:19:05.253Z,59.7
2023-03-06T06:20:06.288Z,59.5
2023-03-06T06:21:07.333Z,59.2
2023-03-06T06:22:08.496Z,59
2023-03-06T06:23:09.378Z,58.6
2023-03-06T06:24:10.433Z,58.8
2023-03-06T06:25:11.248Z,58.9
2023-03-06T06:26:12.857Z,58.8
2023-03-06T06:27:14.271Z,59
2023-03-06T06:28:15.252Z,59
2023-03-06T06:29:16.315Z,58.8
2023-03-06T06:30:17.400Z,58.9
2023-03-06T06:31:25.469Z,58.9
2023-03-06T06:32:26.343Z,58.8
2023-03-06T06:33:27.293Z,58.7
2023-03-06T06:34:28.472Z,58.4
2023-03-06T06:35:29.488Z,58.5
2023-03-06T06:36:30.372Z,58.2
2023-03-06T06:37:31.294Z,57.9
2023-03-06T06:38:32.439Z,58.1
2023-03-06T06:39:33.339Z,58.2
2023-03-06T06:40:34.257Z,57.9
2023-03-06T06:41:53.335Z,57.9
2023-03-06T06:42:39.779Z,58.1
2023-03-06T06:43:37.353Z,58.2
2023-03-06T06:44:38.299Z,58.4
2023-03-06T06:45:39.486Z,58.4
2023-03-06T06:47:20.612Z,58.5
2023-03-06T06:47:41.482Z,58.7
2023-03-06T06:48:42.397Z,58.8
2023-03-06T06:49:43.372Z,58.5
2023-03-06T06:50:44.314Z,58.3
2023-03-06T06:51:45.324Z,58
2023-03-06T06:52:46.372Z,57.7
2023-03-06T06:53:47.334Z,57.8
2023-03-06T06:54:48.453Z,57.8
2023-03-06T06:55:49.371Z,57.6
2023-03-06T06:56:50.253Z,57.7
2023-03-06T06:57:54.078Z,58
2023-03-06T06:59:01.309Z,57.8
2023-03-06T06:59:56.402Z,57.3
2023-03-06T07:00:57.332Z,57.5
2023-03-06T07:01:58.345Z,57.6
2023-03-06T07:02:59.281Z,57.6
2023-03-06T07:04:00.377Z,57.6
2023-03-06T07:05:04.475Z,57.4
2023-03-06T07:06:02.253Z,57.2
2023-03-06T07:07:03.285Z,57.4
2023-03-06T07:08:04.316Z,57.6
2023-03-06T07:09:05.218Z,57.3
2023-03-06T07:10:06.261Z,57
2023-03-06T07:11:07.276Z,56.7
2023-03-06T07:12:08.275Z,56.6
2023-03-06T07:13:09.334Z,56.6
2023-03-06T07:14:10.313Z,56.4
2023-03-06T07:15:11.333Z,56.4
2023-03-06T07:16:12.972Z,56.4
2023-03-06T07:17:14.500Z,56.3
2023-03-06T07:18:15.274Z,56.1
2023-03-06T07:19:16.256Z,55.8
2023-03-06T07:20:17.347Z,55.4
2023-03-06T07:21:18.185Z,55.1
2023-03-06T07:22:19.314Z,54.9
2023-03-06T07:23:20.562Z,54.7
2023-03-06T07:24:21.320Z,54.4
2023-03-06T07:25:22.579Z,54.2
2023-03-06T07:26:23.456Z,54.3
2023-03-06T07:27:24.372Z,54.4
2023-03-06T07:28:25.363Z,54.4
2023-03-06T07:29:26.314Z,54.5
2023-03-06T07:30:27.402Z,54.4
2023-03-06T07:31:28.265Z,54.2
2023-03-06T07:32:29.296Z,54
2023-03-06T07:33:30.376Z,53.8
2023-03-06T07:34:31.294Z,53.7
2023-03-06T07:35:32.450Z,53.1
2023-03-06T07:36:33.296Z,52.8
2023-03-06T07:37:34.292Z,52.6
2023-03-06T07:38:35.382Z,52.6
2023-03-06T07:39:36.375Z,52.9
2023-03-06T07:40:37.264Z,52.9
2023-03-06T07:41:38.384Z,52.7
2023-03-06T07:42:39.276Z,52.7
2023-03-06T07:43:40.402Z,52.6
2023-03-06T07:44:41.305Z,52.7
2023-03-06T07:45:42.298Z,52.4
2023-03-06T07:46:43.313Z,52.2
2023-03-06T07:47:44.449Z,51.7
2023-03-06T07:48:45.455Z,51.7
2023-03-06T07:49:46.345Z,51.9
2023-03-06T07:50:47.299Z,51.8
2023-03-06T07:51:48.338Z,51.7
2023-03-06T07:52:49.425Z,51.4
2023-03-06T07:53:50.535Z,51
2023-03-06T07:54:51.339Z,50.7
2023-03-06T07:55:52.349Z,50.8
2023-03-06T07:56:53.367Z,50.6
2023-03-06T07:57:54.363Z,50.2
2023-03-06T07:58:56.998Z,50.1
2023-03-06T07:59:56.382Z,49.2
2023-03-06T08:00:57.386Z,49.9
2023-03-06T08:01:58.482Z,50.4
2023-03-06T08:02:59.289Z,50.2
2023-03-06T08:04:00.463Z,50.2
2023-03-06T08:05:01.353Z,50
2023-03-06T08:06:02.318Z,49.9
2023-03-06T08:07:03.311Z,49.7
2023-03-06T08:08:04.280Z,49.6
2023-03-06T08:09:05.357Z,50
2023-03-06T08:10:06.384Z,49.8
2023-03-06T08:11:07.319Z,49.9
2023-03-06T08:12:08.362Z,50.2
2023-03-06T08:13:09.267Z,49.7
2023-03-06T08:14:10.286Z,50
2023-03-06T08:15:11.226Z,49.9
2023-03-06T08:16:12.365Z,49.7
2023-03-06T08:17:13.360Z,49.4
2023-03-06T08:18:14.339Z,49.9
2023-03-06T08:19:15.236Z,50.1
2023-03-06T08:20:16.396Z,49.9
2023-03-06T08:21:17.337Z,50.2
2023-03-06T08:22:18.375Z,50.4
2023-03-06T08:23:19.364Z,50
2023-03-06T08:24:20.440Z,49.7
2023-03-06T08:25:21.357Z,50.1
2023-03-06T08:26:22.486Z,50.5
2023-03-06T08:27:23.354Z,50.1
2023-03-06T08:28:24.377Z,49.8
2023-03-06T08:29:25.399Z,49.6
2023-03-06T08:30:26.295Z,49.5
2023-03-06T08:31:27.419Z,49.7
2023-03-06T08:32:28.433Z,49.5
2023-03-06T08:33:29.513Z,49.4
2023-03-06T08:34:30.336Z,49.2
2023-03-06T08:35:31.369Z,48.8
2023-03-06T08:36:32.336Z,48.6
2023-03-06T08:37:33.381Z,48.3
2023-03-06T08:38:34.354Z,48.3
2023-03-06T08:39:35.342Z,48.1
2023-03-06T08:40:36.293Z,48.4
2023-03-06T08:41:37.402Z,47.8
2023-03-06T08:42:38.463Z,47.6
2023-03-06T08:43:39.318Z,47.3
2023-03-06T08:44:40.657Z,47.1
2023-03-06T08:45:41.385Z,47.3
2023-03-06T08:46:42.375Z,47.7
2023-03-06T08:47:43.475Z,48
2023-03-06T08:48:44.294Z,48.2
2023-03-06T08:49:45.293Z,48.4
2023-03-06T08:50:46.354Z,48.5
2023-03-06T08:51:47.435Z,48.6
2023-03-06T08:52:48.414Z,48.3
2023-03-06T08:53:49.295Z,48.5
2023-03-06T08:54:50.383Z,48.8
2023-03-06T08:55:51.452Z,48.7
2023-03-06T08:56:52.304Z,47.9
2023-03-06T08:57:53.474Z,47.6
2023-03-06T08:58:54.305Z,47.5
2023-03-06T08:59:55.531Z,47.1
2023-03-06T09:00:56.548Z,47.1
2023-03-06T09:01:57.500Z,46.9
2023-03-06T09:02:58.352Z,47.1
2023-03-06T09:03:59.327Z,46.7
2023-03-06T09:05:00.454Z,47.2
2023-03-06T09:06:01.398Z,47.9
2023-03-06T09:07:02.326Z,48.1
2023-03-06T09:08:03.355Z,47.5
2023-03-06T09:09:04.377Z,47.3
2023-03-06T09:10:05.362Z,47
2023-03-06T09:11:06.309Z,47.1
2023-03-06T09:12:07.310Z,46.9
2023-03-06T09:13:08.400Z,46.6
2023-03-06T09:14:09.327Z,46.5
2023-03-06T09:15:10.268Z,46.5
2023-03-06T09:16:11.552Z,46.5
2023-03-06T09:17:12.386Z,46.6
2023-03-06T09:18:13.315Z,46.4
2023-03-06T09:19:14.373Z,46.5
2023-03-06T09:20:15.540Z,45.3
2023-03-06T09:21:16.399Z,45.8
2023-03-06T09:22:17.475Z,46.3
2023-03-06T09:23:18.388Z,46.8
2023-03-06T09:24:19.359Z,47.2
2023-03-06T09:25:20.415Z,47
2023-03-06T09:26:21.557Z,46.9
2023-03-06T09:27:22.377Z,46.7
2023-03-06T09:28:23.363Z,46.8
2023-03-06T09:29:24.466Z,46.5
2023-03-06T09:30:25.366Z,47.4
2023-03-06T09:31:26.457Z,47.1
2023-03-06T09:32:27.389Z,46.9
2023-03-06T09:33:28.429Z,46.7
2023-03-06T09:34:29.378Z,46.6
2023-03-06T09:35:30.385Z,46.5
2023-03-06T09:36:33.273Z,46.6
2023-03-06T09:37:32.211Z,46.9
2023-03-06T09:38:33.365Z,47.2
2023-03-06T09:39:34.440Z,46.9
2023-03-06T09:40:35.335Z,47.7
2023-03-06T09:41:36.318Z,47.9
2023-03-06T09:42:37.421Z,47.1
2023-03-06T09:43:38.426Z,46.4
2023-03-06T09:44:39.376Z,46
2023-03-06T09:45:40.482Z,45.7
2023-03-06T09:46:41.405Z,46.1
2023-03-06T09:47:42.603Z,46.5
2023-03-06T09:48:43.353Z,46.6
2023-03-06T09:49:44.302Z,46
2023-03-06T09:50:45.393Z,46
2023-03-06T09:51:46.388Z,46
2023-03-06T09:52:47.350Z,45.8
2023-03-06T09:53:48.318Z,46.2
2023-03-06T09:54:49.462Z,46.4
2023-03-06T09:55:50.446Z,45.7
2023-03-06T09:56:51.421Z,44.6
2023-03-06T09:57:52.486Z,43.9
2023-03-06T09:58:53.284Z,43.3
2023-03-06T09:59:54.435Z,42.9
2023-03-06T10:00:55.322Z,43.6
2023-03-06T10:01:56.554Z,44
2023-03-06T10:02:57.588Z,43.4
2023-03-06T10:03:58.478Z,43.4
2023-03-06T10:04:59.490Z,43.3
2023-03-06T10:06:02.481Z,42.9
2023-03-06T10:07:01.404Z,43.1
2023-03-06T10:08:02.383Z,43.1
2023-03-06T10:09:03.312Z,43.3
2023-03-06T10:10:04.411Z,43.4
2023-03-06T10:11:05.348Z,42.8
2023-03-06T10:12:06.397Z,43.1
2023-03-06T10:13:07.364Z,42.9
2023-03-06T10:14:08.315Z,42.9
2023-03-06T10:15:09.450Z,42.4
2023-03-06T10:16:10.478Z,42.9
2023-03-06T10:17:11.357Z,43.1
2023-03-06T10:18:12.351Z,43.3
2023-03-06T10:19:13.415Z,43.4
2023-03-06T10:20:14.289Z,45.4
2023-03-06T10:21:19.189Z,44.3
2023-03-06T10:22:16.557Z,43.2
2023-03-06T10:23:17.376Z,42.7
2023-03-06T10:24:18.376Z,42.7
2023-03-06T10:25:19.378Z,42.6
2023-03-06T10:26:20.705Z,42.7
2023-03-06T10:27:21.452Z,43.1
2023-03-06T10:28:22.497Z,43.1
2023-03-06T10:29:23.480Z,42.4
2023-03-06T10:30:24.303Z,42.6
2023-03-06T10:31:25.475Z,43.1
2023-03-06T10:32:27.972Z,43.1
2023-03-06T10:33:27.646Z,43.2
2023-03-06T10:34:28.520Z,43.2
2023-03-06T10:35:30.744Z,42
2023-03-06T10:36:30.500Z,42.1
2023-03-06T10:37:32.551Z,42.6
2023-03-06T10:38:32.504Z,43.4
2023-03-06T10:39:33.268Z,43.3
2023-03-06T10:40:34.342Z,42.8
2023-03-06T10:41:35.342Z,42.8
2023-03-06T10:42:36.423Z,42.8
2023-03-06T10:43:37.435Z,41.3
2023-03-06T10:44:38.442Z,40.7
2023-03-06T10:45:48.787Z,40.4
2023-03-06T10:46:40.464Z,41.1
2023-03-06T10:47:41.325Z,40.7
2023-03-06T10:48:42.654Z,40.6
2023-03-06T10:49:43.327Z,41
2023-03-06T10:50:44.254Z,40.5
2023-03-06T10:51:45.360Z,40.4
2023-03-06T10:52:46.459Z,40.3
2023-03-06T10:53:47.458Z,40.5
2023-03-06T10:54:48.421Z,40.5
2023-03-06T10:55:49.409Z,40
2023-03-06T10:56:50.529Z,40.7
2023-03-06T10:57:51.420Z,39.7
2023-03-06T10:58:52.376Z,40.1
2023-03-06T10:59:53.360Z,40.2
2023-03-06T11:00:54.524Z,40.5
2023-03-06T11:01:55.458Z,40.1
2023-03-06T11:02:56.408Z,40.1
2023-03-06T11:03:57.437Z,40.2
2023-03-06T11:04:58.359Z,40
2023-03-06T11:05:59.407Z,39.4
2023-03-06T11:07:00.657Z,38.6
2023-03-06T11:08:01.368Z,38.8
2023-03-06T11:09:02.395Z,39.2
2023-03-06T11:10:03.323Z,39.4
2023-03-06T11:11:04.379Z,39.7
2023-03-06T11:12:05.431Z,40.1
2023-03-06T11:13:06.495Z,39.1
2023-03-06T11:14:07.373Z,38.4
2023-03-06T11:15:08.436Z,38.7
2023-03-06T11:16:09.388Z,38.4
2023-03-06T11:17:10.475Z,39.6
2023-03-06T11:18:11.419Z,39.8
2023-03-06T11:19:12.384Z,39.2
2023-03-06T11:20:13.430Z,39.5
2023-03-06T11:21:14.399Z,38.9
2023-03-06T11:22:15.413Z,38.8
2023-03-06T11:23:16.297Z,38.3
2023-03-06T11:24:17.415Z,38.2
2023-03-06T11:25:18.575Z,38.1
2023-03-06T11:26:19.336Z,38.3
2023-03-06T11:27:20.523Z,38.8
2023-03-06T11:28:21.424Z,38.6
2023-03-06T11:29:22.482Z,38.2
2023-03-06T11:30:23.468Z,37.9
2023-03-06T11:31:24.497Z,38.4
2023-03-06T11:32:25.569Z,38.6
2023-03-06T11:33:26.419Z,38
2023-03-06T11:34:27.473Z,37.2
2023-03-06T11:35:28.427Z,36.4
2023-03-06T11:36:29.447Z,36.3
2023-03-06T11:37:30.386Z,36.6
2023-03-06T11:38:31.423Z,36.7
2023-03-06T11:39:32.392Z,36.5
2023-03-06T11:40:33.510Z,36.2
2023-03-06T11:41:34.365Z,36.7
2023-03-06T11:42:35.680Z,37.6
2023-03-06T11:43:36.454Z,37.5
2023-03-06T11:44:37.392Z,36.8
2023-03-06T11:45:38.521Z,36.8
2023-03-06T11:46:39.512Z,37.3
2023-03-06T11:47:40.516Z,37.7
2023-03-06T11:48:41.501Z,38
2023-03-06T11:49:42.536Z,37.4
2023-03-06T11:50:43.628Z,37.2
2023-03-06T11:51:44.396Z,37.3
2023-03-06T11:52:45.377Z,36.1
2023-03-06T11:53:49.409Z,36.4
2023-03-06T11:54:50.472Z,36.8
2023-03-06T11:55:51.393Z,36.4
2023-03-06T11:56:52.493Z,37.4
2023-03-06T11:57:53.665Z,37.7
2023-03-06T11:58:54.375Z,36.8
2023-03-06T11:59:55.434Z,35.9
2023-03-06T12:00:56.443Z,36.1
2023-03-06T12:01:57.406Z,36
2023-03-06T12:02:58.496Z,36.4
2023-03-06T12:03:59.415Z,37.2
2023-03-06T12:05:00.655Z,37.2
2023-03-06T12:06:01.490Z,35.8
2023-03-06T12:07:02.417Z,36
2023-03-06T12:08:03.376Z,35.5
2023-03-06T12:09:04.588Z,35.4
2023-03-06T12:11:06.350Z,36.6
2023-03-06T12:12:07.579Z,37
2023-03-06T12:13:08.424Z,36.2
2023-03-06T12:14:09.353Z,36.5
2023-03-06T12:15:10.370Z,36.8
2023-03-06T12:16:11.372Z,36.5
2023-03-06T12:17:12.425Z,36.4
2023-03-06T12:18:13.438Z,35.8
2023-03-06T12:19:14.418Z,35.7
2023-03-06T12:20:15.527Z,36.7
2023-03-06T12:21:16.335Z,36.5
2023-03-06T12:22:17.449Z,37.1
2023-03-06T12:23:18.427Z,37.3
2023-03-06T12:24:19.374Z,37.6
2023-03-06T12:25:20.502Z,38
2023-03-06T12:26:21.447Z,38.2
2023-03-06T12:27:22.398Z,38.4
2023-03-06T12:28:23.627Z,38.6
2023-03-06T12:29:24.434Z,39
2023-03-06T12:30:25.460Z,39.3
2023-03-06T12:31:26.536Z,39.2
2023-03-06T12:32:27.550Z,39.3
2023-03-06T12:33:28.503Z,39.4
2023-03-06T12:34:29.475Z,39.5
2023-03-06T12:35:30.477Z,39.2
2023-03-06T12:36:31.559Z,38.9
2023-03-06T12:37:32.451Z,38.7
2023-03-06T12:38:33.405Z,39.2
2023-03-06T12:39:34.542Z,39.8
2023-03-06T12:40:35.637Z,40.3
2023-03-06T12:41:36.557Z,40.4
2023-03-06T12:42:37.480Z,40.8
2023-03-06T12:43:40.099Z,41.5
2023-03-06T12:44:39.424Z,42.3
2023-03-06T12:45:40.535Z,42.7
2023-03-06T12:46:41.514Z,42.3
2023-03-06T12:47:42.394Z,42.2
2023-03-06T12:48:43.496Z,42.2
2023-03-06T12:49:46.036Z,42.3
2023-03-06T12:50:45.536Z,42.8
2023-03-06T12:51:46.526Z,43.6
2023-03-06T12:52:47.465Z,44.5
2023-03-06T12:53:48.484Z,44.8
2023-03-06T12:54:49.507Z,44.8
2023-03-06T12:55:50.436Z,45.1
2023-03-06T12:56:51.571Z,46.1
2023-03-06T12:57:52.479Z,47.1
2023-03-06T12:58:53.768Z,48.3
2023-03-06T12:59:54.588Z,48.9
2023-03-06T13:01:03.464Z,48.9
2023-03-06T13:01:56.523Z,49.3
2023-03-06T13:02:57.558Z,49.4
2023-03-06T13:03:58.700Z,49.2
2023-03-06T13:04:59.662Z,49.3
2023-03-06T13:06:00.681Z,49.1
2023-03-06T13:07:01.569Z,49.5
2023-03-06T13:08:02.525Z,49.7
2023-03-06T13:09:03.562Z,49.9
2023-03-06T13:10:04.603Z,50.4
2023-03-06T13:11:05.553Z,50.8
2023-03-06T13:12:06.588Z,51.2
2023-03-06T13:13:07.483Z,51.7
2023-03-06T13:14:08.660Z,52.3
2023-03-06T13:15:09.643Z,51.8
2023-03-06T13:16:10.534Z,52.4
2023-03-06T13:17:11.505Z,52.7
2023-03-06T13:18:12.424Z,52.5
2023-03-06T13:19:13.556Z,52.3
2023-03-06T13:20:14.647Z,53
2023-03-06T13:21:15.553Z,54.3
2023-03-06T13:22:16.418Z,54.4
2023-03-06T13:23:17.503Z,55.1
2023-03-06T13:24:18.494Z,55.2
2023-03-06T13:25:19.677Z,55.4
2023-03-06T13:26:20.563Z,55.9
2023-03-06T13:27:21.525Z,56.4
2023-03-06T13:28:22.585Z,57
2023-03-06T13:29:23.506Z,57.7
2023-03-06T13:30:24.630Z,58.4
2023-03-06T13:31:27.651Z,58.8
2023-03-06T13:32:26.633Z,58.9
2023-03-06T13:33:27.430Z,59
2023-03-06T13:34:28.489Z,59.5
2023-03-06T13:35:29.528Z,59.8
2023-03-06T13:36:30.469Z,59.7
2023-03-06T13:37:31.668Z,59.2
2023-03-06T13:38:32.820Z,59
2023-03-06T13:39:34.530Z,59
2023-03-06T13:40:35.647Z,58.7
2023-03-06T13:41:36.424Z,59.3